sensor_id;sensor_type;location;lat;lon;timestamp;P1;durP1;ratioP1;P2;durP2;ratioP2
46597;SDS011;32318;48.858;8.252;2022-12-07T00:04:44;27.80;;;13.20;;
46597;SDS011;32318;48.858;8.252;2022-12-07T00:12:45;30.70;;;14.82;;
46597;SDS011;32318;48.858;8.252;2022-12-07T00:20:45;32.70;;;13.25;;
46597;SDS011;32318;48.858;8.252;2022-12-07T00:28:46;31.20;;;13.38;;
46597;SDS011;32318;48.858;8.252;2022-12-07T00:36:48;32.33;;;14.05;;
46597;SDS011;32318;48.858;8.252;2022-12-07T00:44:49;30.33;;;14.05;;
46597;SDS011;32318;48.858;8.252;2022-12-07T00:52:49;33.40;;;14.40;;
46597;SDS011;32318;48.858;8.252;2022-12-07T01:00:49;34.95;;;14.88;;
46597;SDS011;32318;48.858;8.252;2022-12-07T01:08:50;35.22;;;14.55;;
46597;SDS011;32318;48.858;8.252;2022-12-07T01:16:50;32.33;;;15.07;;
46597;SDS011;32318;48.858;8.252;2022-12-07T01:24:50;31.70;;;14.65;;
46597;SDS011;32318;48.858;8.252;2022-12-07T01:32:50;34.15;;;15.05;;
46597;SDS011;32318;48.858;8.252;2022-12-07T01:40:54;37.15;;;15.10;;
46597;SDS011;32318;48.858;8.252;2022-12-07T01:48:56;33.80;;;13.73;;
46597;SDS011;32318;48.858;8.252;2022-12-07T01:56:56;34.92;;;14.73;;
46597;SDS011;32318;48.858;8.252;2022-12-07T02:04:57;31.10;;;14.48;;
46597;SDS011;32318;48.858;8.252;2022-12-07T02:13:01;28.80;;;13.65;;
46597;SDS011;32318;48.858;8.252;2022-12-07T02:21:18;33.55;;;14.45;;
46597;SDS011;32318;48.858;8.252;2022-12-07T02:29:32;32.70;;;14.80;;
46597;SDS011;32318;48.858;8.252;2022-12-07T02:37:41;29.75;;;14.05;;
46597;SDS011;32318;48.858;8.252;2022-12-07T02:45:47;37.40;;;15.05;;
46597;SDS011;32318;48.858;8.252;2022-12-07T02:53:51;29.23;;;13.82;;
46597;SDS011;32318;48.858;8.252;2022-12-07T03:10:34;32.55;;;14.35;;
46597;SDS011;32318;48.858;8.252;2022-12-07T03:18:38;35.10;;;14.32;;
46597;SDS011;32318;48.858;8.252;2022-12-07T03:26:42;32.80;;;14.93;;
46597;SDS011;32318;48.858;8.252;2022-12-07T03:42:59;38.55;;;15.02;;
46597;SDS011;32318;48.858;8.252;2022-12-07T03:59:18;28.00;;;12.77;;
46597;SDS011;32318;48.858;8.252;2022-12-07T04:07:20;34.58;;;15.15;;
46597;SDS011;32318;48.858;8.252;2022-12-07T04:15:20;30.20;;;14.57;;
46597;SDS011;32318;48.858;8.252;2022-12-07T04:23:21;33.13;;;14.13;;
46597;SDS011;32318;48.858;8.252;2022-12-07T04:31:21;38.03;;;16.75;;
46597;SDS011;32318;48.858;8.252;2022-12-07T04:39:23;33.97;;;15.90;;
46597;SDS011;32318;48.858;8.252;2022-12-07T04:47:25;40.35;;;15.90;;
46597;SDS011;32318;48.858;8.252;2022-12-07T04:55:25;32.40;;;15.32;;
46597;SDS011;32318;48.858;8.252;2022-12-07T05:03:25;35.97;;;14.60;;
46597;SDS011;32318;48.858;8.252;2022-12-07T05:11:26;34.70;;;15.15;;
46597;SDS011;32318;48.858;8.252;2022-12-07T05:19:38;35.42;;;16.27;;
46597;SDS011;32318;48.858;8.252;2022-12-07T05:27:38;32.42;;;13.30;;
46597;SDS011;32318;48.858;8.252;2022-12-07T05:35:38;34.13;;;14.85;;
46597;SDS011;32318;48.858;8.252;2022-12-07T05:43:38;31.13;;;14.45;;
46597;SDS011;32318;48.858;8.252;2022-12-07T05:51:39;37.55;;;15.80;;
46597;SDS011;32318;48.858;8.252;2022-12-07T05:59:39;30.55;;;13.13;;
46597;SDS011;32318;48.858;8.252;2022-12-07T06:07:40;30.53;;;14.07;;
46597;SDS011;32318;48.858;8.252;2022-12-07T06:15:40;37.35;;;16.92;;
46597;SDS011;32318;48.858;8.252;2022-12-07T06:23:40;22.67;;;11.65;;
46597;SDS011;32318;48.858;8.252;2022-12-07T06:31:41;29.83;;;13.90;;
46597;SDS011;32318;48.858;8.252;2022-12-07T06:39:41;21.60;;;10.70;;
46597;SDS011;32318;48.858;8.252;2022-12-07T06:47:41;25.38;;;10.25;;
46597;SDS011;32318;48.858;8.252;2022-12-07T06:55:41;23.33;;;10.75;;
46597;SDS011;32318;48.858;8.252;2022-12-07T07:03:43;23.52;;;11.30;;
46597;SDS011;32318;48.858;8.252;2022-12-07T07:11:44;26.90;;;11.15;;
46597;SDS011;32318;48.858;8.252;2022-12-07T07:19:44;24.33;;;11.43;;
46597;SDS011;32318;48.858;8.252;2022-12-07T07:27:44;33.13;;;13.68;;
46597;SDS011;32318;48.858;8.252;2022-12-07T07:35:45;27.58;;;12.05;;
46597;SDS011;32318;48.858;8.252;2022-12-07T07:43:45;31.02;;;13.60;;
46597;SDS011;32318;48.858;8.252;2022-12-07T07:51:45;29.30;;;11.10;;
46597;SDS011;32318;48.858;8.252;2022-12-07T07:59:45;29.88;;;12.50;;
46597;SDS011;32318;48.858;8.252;2022-12-07T08:07:46;30.27;;;13.35;;
46597;SDS011;32318;48.858;8.252;2022-12-07T08:15:47;27.00;;;11.73;;
46597;SDS011;32318;48.858;8.252;2022-12-07T08:23:48;27.27;;;11.93;;
46597;SDS011;32318;48.858;8.252;2022-12-07T08:31:48;25.42;;;12.18;;
46597;SDS011;32318;48.858;8.252;2022-12-07T08:39:48;25.75;;;11.80;;
46597;SDS011;32318;48.858;8.252;2022-12-07T08:48:02;27.27;;;12.32;;
46597;SDS011;32318;48.858;8.252;2022-12-07T08:56:06;25.05;;;11.13;;
46597;SDS011;32318;48.858;8.252;2022-12-07T09:04:07;23.83;;;10.68;;
46597;SDS011;32318;48.858;8.252;2022-12-07T09:12:07;26.05;;;11.25;;
46597;SDS011;32318;48.858;8.252;2022-12-07T09:20:08;25.02;;;10.50;;
46597;SDS011;32318;48.858;8.252;2022-12-07T09:28:08;30.25;;;13.75;;
46597;SDS011;32318;48.858;8.252;2022-12-07T09:36:09;27.48;;;12.18;;
46597;SDS011;32318;48.858;8.252;2022-12-07T09:44:11;23.73;;;10.52;;
46597;SDS011;32318;48.858;8.252;2022-12-07T09:52:24;21.50;;;10.10;;
46597;SDS011;32318;48.858;8.252;2022-12-07T10:00:27;25.33;;;10.35;;
46597;SDS011;32318;48.858;8.252;2022-12-07T10:08:28;24.88;;;11.15;;
46597;SDS011;32318;48.858;8.252;2022-12-07T10:16:37;25.88;;;11.15;;
46597;SDS011;32318;48.858;8.252;2022-12-07T10:24:42;24.65;;;11.77;;
46597;SDS011;32318;48.858;8.252;2022-12-07T10:32:43;28.13;;;10.50;;
46597;SDS011;32318;48.858;8.252;2022-12-07T10:40:43;23.85;;;9.60;;
46597;SDS011;32318;48.858;8.252;2022-12-07T10:48:50;20.15;;;8.40;;
46597;SDS011;32318;48.858;8.252;2022-12-07T11:22:30;23.55;;;10.00;;
46597;SDS011;32318;48.858;8.252;2022-12-07T11:39:35;24.77;;;10.40;;
46597;SDS011;32318;48.858;8.252;2022-12-07T12:04:23;29.47;;;9.77;;
46597;SDS011;32318;48.858;8.252;2022-12-07T12:21:21;20.48;;;9.60;;
46597;SDS011;32318;48.858;8.252;2022-12-07T12:29:30;25.08;;;10.48;;
46597;SDS011;32318;48.858;8.252;2022-12-07T12:37:42;24.27;;;10.45;;
46597;SDS011;32318;48.858;8.252;2022-12-07T12:45:43;24.20;;;10.30;;
46597;SDS011;32318;48.858;8.252;2022-12-07T12:53:44;28.85;;;11.85;;
46597;SDS011;32318;48.858;8.252;2022-12-07T13:01:55;31.00;;;12.60;;
46597;SDS011;32318;48.858;8.252;2022-12-07T13:42:36;28.88;;;14.07;;
46597;SDS011;32318;48.858;8.252;2022-12-07T13:50:37;26.80;;;12.25;;
46597;SDS011;32318;48.858;8.252;2022-12-07T13:58:37;44.97;;;18.27;;
46597;SDS011;32318;48.858;8.252;2022-12-07T14:06:37;32.15;;;15.00;;
46597;SDS011;32318;48.858;8.252;2022-12-07T14:14:48;35.70;;;19.33;;
46597;SDS011;32318;48.858;8.252;2022-12-07T14:22:54;58.55;;;35.33;;
46597;SDS011;32318;48.858;8.252;2022-12-07T14:30:55;33.20;;;13.38;;
46597;SDS011;32318;48.858;8.252;2022-12-07T14:38:55;32.63;;;13.80;;
46597;SDS011;32318;48.858;8.252;2022-12-07T14:46:58;24.05;;;11.43;;
46597;SDS011;32318;48.858;8.252;2022-12-07T14:54:58;27.80;;;13.05;;
46597;SDS011;32318;48.858;8.252;2022-12-07T15:02:58;26.50;;;10.55;;
46597;SDS011;32318;48.858;8.252;2022-12-07T15:10:59;23.10;;;11.43;;
46597;SDS011;32318;48.858;8.252;2022-12-07T15:18:59;39.08;;;14.82;;
46597;SDS011;32318;48.858;8.252;2022-12-07T15:26:59;27.00;;;11.15;;
46597;SDS011;32318;48.858;8.252;2022-12-07T15:35:00;27.65;;;12.18;;
46597;SDS011;32318;48.858;8.252;2022-12-07T15:43:01;25.63;;;11.73;;
46597;SDS011;32318;48.858;8.252;2022-12-07T15:51:02;24.88;;;11.27;;
46597;SDS011;32318;48.858;8.252;2022-12-07T15:59:07;37.53;;;14.93;;
46597;SDS011;32318;48.858;8.252;2022-12-07T16:07:07;27.95;;;13.07;;
46597;SDS011;32318;48.858;8.252;2022-12-07T16:15:08;29.70;;;13.25;;
46597;SDS011;32318;48.858;8.252;2022-12-07T16:23:08;32.42;;;13.82;;
46597;SDS011;32318;48.858;8.252;2022-12-07T16:31:10;37.20;;;14.27;;
46597;SDS011;32318;48.858;8.252;2022-12-07T16:39:15;32.38;;;13.40;;
46597;SDS011;32318;48.858;8.252;2022-12-07T16:47:16;38.15;;;14.18;;
46597;SDS011;32318;48.858;8.252;2022-12-07T16:55:16;39.17;;;15.65;;
46597;SDS011;32318;48.858;8.252;2022-12-07T17:03:16;34.15;;;13.77;;
46597;SDS011;32318;48.858;8.252;2022-12-07T17:11:21;34.03;;;15.07;;
46597;SDS011;32318;48.858;8.252;2022-12-07T17:19:23;42.22;;;14.77;;
46597;SDS011;32318;48.858;8.252;2022-12-07T17:27:23;40.17;;;15.05;;
46597;SDS011;32318;48.858;8.252;2022-12-07T17:35:24;45.42;;;18.98;;
46597;SDS011;32318;48.858;8.252;2022-12-07T17:43:24;40.17;;;15.63;;
46597;SDS011;32318;48.858;8.252;2022-12-07T17:51:24;36.58;;;14.73;;
46597;SDS011;32318;48.858;8.252;2022-12-07T17:59:43;38.20;;;15.77;;
46597;SDS011;32318;48.858;8.252;2022-12-07T18:07:44;39.03;;;14.65;;
46597;SDS011;32318;48.858;8.252;2022-12-07T18:15:44;37.33;;;15.23;;
46597;SDS011;32318;48.858;8.252;2022-12-07T18:23:48;52.60;;;18.73;;
46597;SDS011;32318;48.858;8.252;2022-12-07T18:31:49;51.95;;;18.73;;
46597;SDS011;32318;48.858;8.252;2022-12-07T18:39:50;51.42;;;18.85;;
46597;SDS011;32318;48.858;8.252;2022-12-07T18:47:50;47.72;;;19.48;;
46597;SDS011;32318;48.858;8.252;2022-12-07T18:55:50;45.47;;;18.88;;
46597;SDS011;32318;48.858;8.252;2022-12-07T19:04:00;35.78;;;15.48;;
46597;SDS011;32318;48.858;8.252;2022-12-07T19:12:01;38.65;;;16.77;;
46597;SDS011;32318;48.858;8.252;2022-12-07T19:20:04;36.38;;;16.08;;
46597;SDS011;32318;48.858;8.252;2022-12-07T19:28:07;35.22;;;17.08;;
46597;SDS011;32318;48.858;8.252;2022-12-07T19:36:07;58.47;;;22.88;;
46597;SDS011;32318;48.858;8.252;2022-12-07T19:44:09;73.00;;;27.80;;
46597;SDS011;32318;48.858;8.252;2022-12-07T19:52:12;56.85;;;22.00;;
46597;SDS011;32318;48.858;8.252;2022-12-07T20:00:13;62.63;;;23.27;;
46597;SDS011;32318;48.858;8.252;2022-12-07T20:08:14;59.67;;;22.83;;
46597;SDS011;32318;48.858;8.252;2022-12-07T20:16:14;57.22;;;22.55;;
46597;SDS011;32318;48.858;8.252;2022-12-07T20:24:16;54.43;;;22.50;;
46597;SDS011;32318;48.858;8.252;2022-12-07T20:32:18;47.17;;;21.80;;
46597;SDS011;32318;48.858;8.252;2022-12-07T20:40:18;46.22;;;20.30;;
46597;SDS011;32318;48.858;8.252;2022-12-07T20:48:19;48.70;;;19.73;;
46597;SDS011;32318;48.858;8.252;2022-12-07T20:56:26;47.75;;;20.02;;
46597;SDS011;32318;48.858;8.252;2022-12-07T21:04:28;41.72;;;18.25;;
46597;SDS011;32318;48.858;8.252;2022-12-07T21:12:29;41.33;;;17.70;;
46597;SDS011;32318;48.858;8.252;2022-12-07T21:20:29;32.30;;;14.88;;
46597;SDS011;32318;48.858;8.252;2022-12-07T21:28:29;37.63;;;16.10;;
46597;SDS011;32318;48.858;8.252;2022-12-07T21:36:30;39.47;;;15.50;;
46597;SDS011;32318;48.858;8.252;2022-12-07T21:44:31;39.83;;;15.38;;
46597;SDS011;32318;48.858;8.252;2022-12-07T21:52:31;34.53;;;14.95;;
46597;SDS011;32318;48.858;8.252;2022-12-07T22:00:32;37.95;;;16.90;;
46597;SDS011;32318;48.858;8.252;2022-12-07T22:08:32;37.10;;;15.60;;
46597;SDS011;32318;48.858;8.252;2022-12-07T22:16:32;39.60;;;14.48;;
46597;SDS011;32318;48.858;8.252;2022-12-07T22:24:33;38.70;;;15.80;;
46597;SDS011;32318;48.858;8.252;2022-12-07T22:32:34;38.53;;;15.45;;
46597;SDS011;32318;48.858;8.252;2022-12-07T22:40:34;32.70;;;14.07;;
46597;SDS011;32318;48.858;8.252;2022-12-07T22:48:36;40.40;;;14.63;;
46597;SDS011;32318;48.858;8.252;2022-12-07T22:56:39;33.47;;;13.77;;
46597;SDS011;32318;48.858;8.252;2022-12-07T23:04:39;28.83;;;12.55;;
46597;SDS011;32318;48.858;8.252;2022-12-07T23:12:40;32.95;;;13.48;;
46597;SDS011;32318;48.858;8.252;2022-12-07T23:20:58;32.08;;;13.35;;
46597;SDS011;32318;48.858;8.252;2022-12-07T23:28:58;32.60;;;13.55;;
46597;SDS011;32318;48.858;8.252;2022-12-07T23:36:59;31.58;;;13.18;;
46597;SDS011;32318;48.858;8.252;2022-12-07T23:44:59;31.08;;;13.23;;
46597;SDS011;32318;48.858;8.252;2022-12-07T23:52:59;32.40;;;12.35;;
